Time;durP1;ratioP1;P1;durP2;ratioP2;P2;SDS_P1;SDS_P2;PMS_P1;PMS_P2;Temp;Humidity;BMP_temperature;BMP_pressure;BME280_temperature;BME280_humidity;BME280_pressure;Samples;Min_cycle;Max_cycle;Signal;HPM_P1;HPM_P2
2022/11/04 00:01:47;;;;;;;9.90;2.13;;;;;;;;;;4984106;28;20050;-67
2022/11/04 00:04:14;;;;;;;17.27;2.72;;;;;;;;;;4968119;28;20058;-67
2022/11/04 00:06:40;;;;;;;18.95;3.17;;;;;;;;;;4979799;28;20022;-69
2022/11/04 00:09:07;;;;;;;19.35;3.20;;;;;;;;;;4982962;28;20040;-67
2022/11/04 00:14:19;;;;;;;10.48;2.80;;;;;;;;;;4981517;28;20041;-67
2022/11/04 00:30:34;;;;;;;10.38;1.80;;;;;;;;;;4983317;28;20069;-66
2022/11/04 00:35:58;;;;;;;7.00;2.25;;;;;;;;;;4940267;28;20477;-67
2022/11/04 00:38:24;;;;;;;15.02;2.92;;;;;;;;;;4965731;28;20026;-66
2022/11/04 00:40:51;;;;;;;9.50;2.30;;;;;;;;;;4976808;28;20031;-65
2022/11/04 00:43:17;;;;;;;11.23;2.28;;;;;;;;;;4980770;28;20069;-65
2022/11/04 00:45:43;;;;;;;11.13;2.10;;;;;;;;;;4986724;28;20036;-65
2022/11/04 00:48:09;;;;;;;10.88;2.10;;;;;;;;;;4981037;28;20027;-66
2022/11/04 00:50:35;;;;;;;7.28;1.92;;;;;;;;;;4981048;28;20022;-66
2022/11/04 00:53:01;;;;;;;11.75;2.05;;;;;;;;;;4973862;28;20042;-67
2022/11/04 00:55:28;;;;;;;6.82;2.00;;;;;;;;;;4983032;28;20362;-67
2022/11/04 00:57:54;;;;;;;8.93;1.92;;;;;;;;;;4983452;28;20445;-67
2022/11/04 01:00:20;;;;;;;11.43;2.55;;;;;;;;;;4979192;28;20030;-67
2022/11/04 01:02:46;;;;;;;6.85;1.88;;;;;;;;;;4982929;28;20061;-67
2022/11/04 01:05:12;;;;;;;7.35;1.70;;;;;;;;;;4982133;28;20035;-66
2022/11/04 01:07:39;;;;;;;14.27;1.90;;;;;;;;;;4976032;28;20400;-66
2022/11/04 01:10:05;;;;;;;10.70;1.80;;;;;;;;;;4963830;28;20406;-66
2022/11/04 01:12:31;;;;;;;9.13;2.13;;;;;;;;;;4979070;28;20053;-67
2022/11/04 01:14:58;;;;;;;17.20;3.10;;;;;;;;;;4976876;28;20038;-67
2022/11/04 01:17:24;;;;;;;14.07;3.78;;;;;;;;;;4976325;28;20038;-67
2022/11/04 01:19:50;;;;;;;15.85;3.60;;;;;;;;;;4985823;28;20033;-67
2022/11/04 01:22:16;;;;;;;12.38;4.07;;;;;;;;;;4975566;28;20535;-67
2022/11/04 01:24:42;;;;;;;13.82;4.28;;;;;;;;;;4980020;28;20039;-67
2022/11/04 01:27:08;;;;;;;18.35;4.90;;;;;;;;;;4980050;28;20125;-67
2022/11/04 01:29:34;;;;;;;21.67;6.15;;;;;;;;;;4978757;28;20026;-67
2022/11/04 01:32:00;;;;;;;28.65;7.03;;;;;;;;;;4963531;28;20094;-66
2022/11/04 01:34:26;;;;;;;22.02;7.85;;;;;;;;;;4980577;28;20265;-66
2022/11/04 01:36:52;;;;;;;21.15;7.00;;;;;;;;;;4982176;28;20027;-67
2022/11/04 01:39:18;;;;;;;18.58;6.63;;;;;;;;;;4979527;28;20503;-66
2022/11/04 01:41:44;;;;;;;18.40;6.55;;;;;;;;;;4981537;28;20092;-67
2022/11/04 01:44:29;;;;;;;13.13;5.07;;;;;;;;;;4981475;28;20034;-65
2022/11/04 01:46:55;;;;;;;12.50;4.80;;;;;;;;;;4983438;28;20026;-65
2022/11/04 01:49:29;;;;;;;11.77;4.43;;;;;;;;;;4984621;28;20121;-65
2022/11/04 01:51:59;;;;;;;11.10;3.45;;;;;;;;;;4979821;28;20027;-65
2022/11/04 01:54:25;;;;;;;14.02;4.43;;;;;;;;;;4980853;28;20022;-66
2022/11/04 01:56:52;;;;;;;10.35;3.92;;;;;;;;;;4982071;28;20030;-65
2022/11/04 01:59:22;;;;;;;10.20;3.50;;;;;;;;;;4967137;28;20117;-65
2022/11/04 02:01:48;;;;;;;12.13;3.60;;;;;;;;;;4980662;28;20030;-65
2022/11/04 02:04:26;;;;;;;8.25;3.47;;;;;;;;;;4986523;28;20049;-65
2022/11/04 02:06:54;;;;;;;13.85;3.47;;;;;;;;;;4984586;28;20918;-65
2022/11/04 02:09:21;;;;;;;11.27;3.45;;;;;;;;;;4988201;28;20026;-66
2022/11/04 02:14:32;;;;;;;6.65;2.58;;;;;;;;;;4987638;28;21374;-67
2022/11/04 02:17:21;;;;;;;10.70;4.10;;;;;;;;;;4978110;28;20034;-65
2022/11/04 02:19:53;;;;;;;12.48;3.60;;;;;;;;;;4976408;28;20481;-66
2022/11/04 02:22:31;;;;;;;9.57;2.88;;;;;;;;;;4983466;28;20093;-66
2022/11/04 02:25:06;;;;;;;6.93;2.40;;;;;;;;;;4981512;28;20443;-66
2022/11/04 02:27:53;;;;;;;4.40;2.30;;;;;;;;;;4982445;28;20023;-67
2022/11/04 02:30:20;;;;;;;7.38;2.50;;;;;;;;;;4984019;28;20637;-67
2022/11/04 02:33:05;;;;;;;7.07;2.63;;;;;;;;;;4983936;28;20113;-67
2022/11/04 02:35:40;;;;;;;10.48;2.72;;;;;;;;;;4986057;28;20390;-68
2022/11/04 02:38:22;;;;;;;15.77;3.67;;;;;;;;;;4983879;28;20053;-68
2022/11/04 02:40:54;;;;;;;10.25;2.78;;;;;;;;;;4978656;28;20077;-68
2022/11/04 02:43:41;;;;;;;11.13;3.45;;;;;;;;;;4982189;28;20304;-68
2022/11/04 02:46:18;;;;;;;7.85;2.42;;;;;;;;;;4985105;28;20042;-68
2022/11/04 02:49:05;;;;;;;12.82;2.85;;;;;;;;;;4983009;28;20033;-68
2022/11/04 02:51:34;;;;;;;9.05;3.80;;;;;;;;;;4981109;28;20037;-68
2022/11/04 02:54:00;;;;;;;10.40;3.00;;;;;;;;;;4987179;28;20038;-68
2022/11/04 02:56:28;;;;;;;12.43;3.50;;;;;;;;;;4987203;28;20113;-68
2022/11/04 02:58:59;;;;;;;12.98;4.07;;;;;;;;;;4979765;28;20468;-68
2022/11/04 03:01:25;;;;;;;;;;;;;;;;;;4986366;28;20497;-68
2022/11/04 03:03:55;;;;;;;13.07;4.63;;;;;;;;;;4980337;28;19910;-68
2022/11/04 03:06:22;;;;;;;10.93;5.50;;;;;;;;;;4987679;28;20084;-68
2022/11/04 03:08:51;;;;;;;14.43;5.90;;;;;;;;;;4984490;28;20101;-68
2022/11/04 03:11:18;;;;;;;16.60;6.40;;;;;;;;;;4985779;28;20033;-68
2022/11/04 03:14:11;;;;;;;13.73;6.18;;;;;;;;;;4982992;28;20064;-67
2022/11/04 03:16:45;;;;;;;13.40;5.90;;;;;;;;;;4948682;28;20374;-66
2022/11/04 03:19:34;;;;;;;12.75;6.00;;;;;;;;;;4982567;28;20054;-67
2022/11/04 03:22:03;;;;;;;14.93;6.65;;;;;;;;;;4972721;28;20598;-67
2022/11/04 03:24:30;;;;;;;20.75;6.03;;;;;;;;;;4967447;28;20121;-68
2022/11/04 03:27:00;;;;;;;15.27;7.32;;;;;;;;;;4970258;28;20565;-68
2022/11/04 03:29:30;;;;;;;20.48;8.00;;;;;;;;;;4984543;28;20583;-68
2022/11/04 03:32:03;;;;;;;21.02;9.57;;;;;;;;;;4984385;28;20022;-68
2022/11/04 03:34:29;;;;;;;22.52;10.82;;;;;;;;;;4984815;28;20563;-68
2022/11/04 03:36:56;;;;;;;21.55;11.25;;;;;;;;;;4986488;28;20108;-68
2022/11/04 03:39:22;;;;;;;19.05;11.45;;;;;;;;;;4981742;28;20034;-67
2022/11/04 03:41:50;;;;;;;23.33;12.52;;;;;;;;;;4984422;28;20172;-68
2022/11/04 03:44:16;;;;;;;27.15;14.32;;;;;;;;;;4982066;28;20053;-68
2022/11/04 03:46:42;;;;;;;23.65;14.50;;;;;;;;;;4983852;28;20018;-67
2022/11/04 03:49:09;;;;;;;31.55;16.40;;;;;;;;;;4983894;28;20026;-68
2022/11/04 03:51:35;;;;;;;26.75;15.82;;;;;;;;;;4984621;28;20027;-68
2022/11/04 03:54:01;;;;;;;31.50;15.98;;;;;;;;;;4985668;28;20046;-68
2022/11/04 03:56:46;;;;;;;30.83;16.30;;;;;;;;;;4987016;28;20041;-68
2022/11/04 03:59:25;;;;;;;30.60;17.65;;;;;;;;;;4979273;28;20478;-68
2022/11/04 04:01:56;;;;;;;33.83;17.33;;;;;;;;;;4985786;28;20019;-68
2022/11/04 04:04:22;;;;;;;;;;;;;;;;;;4984975;28;20189;-68
2022/11/04 04:06:52;;;;;;;37.65;18.58;;;;;;;;;;4981974;28;20004;-68
2022/11/04 04:09:18;;;;;;;36.75;18.75;;;;;;;;;;4976362;28;20182;-68
2022/11/04 04:11:55;;;;;;;40.40;19.67;;;;;;;;;;4986005;28;20510;-68
2022/11/04 04:14:38;;;;;;;39.58;19.77;;;;;;;;;;4982173;28;20041;-67
2022/11/04 04:17:24;;;;;;;41.05;19.88;;;;;;;;;;4987380;28;20030;-67
2022/11/04 04:19:56;;;;;;;46.42;19.88;;;;;;;;;;4981276;28;20040;-68
2022/11/04 04:22:31;;;;;;;48.30;19.35;;;;;;;;;;4977550;28;20042;-67
2022/11/04 04:27:44;;;;;;;48.47;18.98;;;;;;;;;;4986124;28;20085;-67
2022/11/04 04:30:12;;;;;;;49.83;21.30;;;;;;;;;;4978165;28;21304;-68
2022/11/04 04:32:44;;;;;;;57.42;21.52;;;;;;;;;;4984819;28;20030;-68
2022/11/04 04:44:58;;;;;;;58.10;21.90;;;;;;;;;;4979150;28;20101;-68
2022/11/04 04:46:25;;;;;;;65.35;23.25;;;;;;;;;;4947751;28;20059;-67
2022/11/04 04:48:51;;;;;;;62.17;23.58;;;;;;;;;;4977373;28;20494;-67
2022/11/04 04:51:17;;;;;;;68.88;23.40;;;;;;;;;;4961593;28;20509;-67
2022/11/04 04:53:43;;;;;;;70.45;24.75;;;;;;;;;;4981662;28;20035;-67
2022/11/04 04:56:09;;;;;;;73.68;25.83;;;;;;;;;;4987178;28;20524;-67
2022/11/04 04:58:35;;;;;;;91.70;28.58;;;;;;;;;;4966342;28;20110;-67
2022/11/04 05:01:02;;;;;;;86.30;29.08;;;;;;;;;;4966831;28;20034;-67
2022/11/04 05:03:28;;;;;;;83.30;30.33;;;;;;;;;;4981956;28;20108;-67
2022/11/04 05:05:54;;;;;;;93.45;30.98;;;;;;;;;;4983317;28;20066;-67
2022/11/04 05:08:20;;;;;;;93.43;32.30;;;;;;;;;;4975394;28;20033;-67
2022/11/04 05:10:46;;;;;;;88.05;35.60;;;;;;;;;;4982236;28;20023;-67
2022/11/04 05:13:24;;;;;;;82.75;36.45;;;;;;;;;;4978956;28;20137;-68
2022/11/04 05:15:50;;;;;;;85.13;35.53;;;;;;;;;;4979372;28;20525;-67
2022/11/04 05:18:18;;;;;;;88.13;38.22;;;;;;;;;;4976916;28;20439;-66
2022/11/04 05:20:44;;;;;;;77.85;37.53;;;;;;;;;;4980955;28;20177;-66
2022/11/04 05:23:11;;;;;;;85.80;37.17;;;;;;;;;;4980511;28;20306;-66
2022/11/04 05:25:40;;;;;;;79.15;35.95;;;;;;;;;;4983573;28;20068;-66
2022/11/04 05:28:07;;;;;;;82.15;37.90;;;;;;;;;;4981143;28;20058;-67
2022/11/04 05:30:33;;;;;;;83.65;37.10;;;;;;;;;;4980924;28;20018;-67
2022/11/04 05:32:59;;;;;;;85.45;38.00;;;;;;;;;;4982738;28;20022;-67
2022/11/04 05:35:25;;;;;;;86.10;36.67;;;;;;;;;;4982977;28;20517;-67
2022/11/04 05:37:51;;;;;;;83.82;38.03;;;;;;;;;;4976895;28;20030;-67
2022/11/04 05:40:17;;;;;;;89.47;38.95;;;;;;;;;;4984756;28;20037;-66
2022/11/04 05:42:43;;;;;;;88.13;38.90;;;;;;;;;;4986136;28;20035;-68
2022/11/04 05:45:10;;;;;;;97.90;40.38;;;;;;;;;;4967315;28;20113;-66
2022/11/04 05:47:36;;;;;;;89.18;40.55;;;;;;;;;;4986231;28;20030;-67
2022/11/04 05:50:02;;;;;;;91.07;41.40;;;;;;;;;;4963746;28;20042;-67
2022/11/04 05:52:28;;;;;;;90.22;40.88;;;;;;;;;;4979496;28;20031;-67
2022/11/04 05:54:54;;;;;;;94.90;41.28;;;;;;;;;;4980115;28;20038;-67
2022/11/04 05:57:20;;;;;;;94.90;40.85;;;;;;;;;;4983064;28;20038;-68
2022/11/04 05:59:46;;;;;;;93.28;41.28;;;;;;;;;;4982131;28;20034;-68
2022/11/04 06:02:12;;;;;;;94.47;41.15;;;;;;;;;;4980214;28;20034;-67
2022/11/04 06:04:38;;;;;;;96.25;42.15;;;;;;;;;;4952349;28;20038;-68
2022/11/04 06:07:04;;;;;;;104.20;43.08;;;;;;;;;;4990242;28;20050;-67
2022/11/04 06:09:39;;;;;;;96.07;41.80;;;;;;;;;;4978825;28;20139;-68
2022/11/04 06:12:15;;;;;;;118.90;43.67;;;;;;;;;;4980969;28;20150;-67
2022/11/04 06:14:42;;;;;;;122.28;46.47;;;;;;;;;;4983018;28;20042;-68
2022/11/04 06:17:16;;;;;;;116.57;45.47;;;;;;;;;;4976337;28;20034;-67
2022/11/04 06:19:42;;;;;;;111.43;45.85;;;;;;;;;;4980219;28;20027;-67
2022/11/04 06:22:10;;;;;;;114.60;46.88;;;;;;;;;;4981460;28;20034;-67
2022/11/04 06:24:36;;;;;;;118.18;45.13;;;;;;;;;;4981786;28;20030;-67
2022/11/04 06:27:02;;;;;;;108.22;40.45;;;;;;;;;;4987135;28;20438;-67
2022/11/04 06:29:28;;;;;;;111.80;42.20;;;;;;;;;;4982583;28;20030;-67
2022/11/04 06:31:54;;;;;;;115.97;41.85;;;;;;;;;;4977599;28;20045;-67
2022/11/04 06:34:20;;;;;;;122.07;42.90;;;;;;;;;;4979604;28;20084;-65
2022/11/04 06:36:47;;;;;;;131.15;44.88;;;;;;;;;;4978805;28;20101;-64
2022/11/04 06:39:13;;;;;;;131.60;48.10;;;;;;;;;;4981614;28;20792;-64
2022/11/04 06:41:39;;;;;;;138.70;48.55;;;;;;;;;;4965735;28;20109;-66
2022/11/04 06:44:06;;;;;;;121.50;46.78;;;;;;;;;;4964048;28;20042;-65
2022/11/04 06:46:39;;;;;;;126.35;48.40;;;;;;;;;;4970590;28;20027;-65
2022/11/04 06:49:06;;;;;;;130.40;49.47;;;;;;;;;;4985933;28;20025;-64
2022/11/04 06:51:32;;;;;;;121.82;49.10;;;;;;;;;;4989063;28;20029;-66
2022/11/04 06:53:58;;;;;;;136.95;50.30;;;;;;;;;;4986190;28;20026;-64
2022/11/04 06:56:25;;;;;;;140.27;51.03;;;;;;;;;;4987088;28;20033;-65
2022/11/04 06:58:52;;;;;;;139.00;52.53;;;;;;;;;;4984093;28;20035;-64
2022/11/04 07:01:18;;;;;;;137.65;52.65;;;;;;;;;;4987831;28;20041;-65
2022/11/04 07:03:48;;;;;;;139.63;51.78;;;;;;;;;;4983189;28;20026;-65
2022/11/04 07:06:14;;;;;;;124.10;50.47;;;;;;;;;;4987621;28;20066;-65
2022/11/04 07:08:40;;;;;;;136.30;50.65;;;;;;;;;;4981759;28;20065;-65
2022/11/04 07:11:06;;;;;;;130.93;48.92;;;;;;;;;;4982771;28;20027;-65
2022/11/04 07:13:32;;;;;;;134.35;50.17;;;;;;;;;;4983004;28;20046;-64
2022/11/04 07:15:58;;;;;;;132.18;51.95;;;;;;;;;;4990229;28;20034;-63
2022/11/04 07:18:24;;;;;;;154.38;53.78;;;;;;;;;;4990030;28;20026;-66
2022/11/04 07:20:51;;;;;;;144.57;53.10;;;;;;;;;;4954464;28;20513;-65
2022/11/04 07:23:17;;;;;;;157.02;56.38;;;;;;;;;;4989657;28;20125;-65
2022/11/04 07:25:43;;;;;;;146.63;53.13;;;;;;;;;;4990591;28;20038;-64
2022/11/04 07:28:09;;;;;;;150.35;55.17;;;;;;;;;;4994511;28;20073;-64
2022/11/04 07:30:35;;;;;;;135.23;51.33;;;;;;;;;;4956518;28;20038;-64
2022/11/04 07:33:01;;;;;;;134.27;52.20;;;;;;;;;;4990256;28;20039;-64
2022/11/04 07:35:27;;;;;;;138.98;51.33;;;;;;;;;;4991836;28;20034;-64
2022/11/04 07:37:54;;;;;;;137.00;53.53;;;;;;;;;;4989985;28;20038;-64
2022/11/04 07:40:20;;;;;;;132.35;53.00;;;;;;;;;;4991973;28;20041;-64
2022/11/04 07:42:46;;;;;;;130.95;49.97;;;;;;;;;;4992174;28;20026;-65
2022/11/04 07:45:12;;;;;;;107.75;46.40;;;;;;;;;;4990245;28;20049;-64
2022/11/04 07:47:38;;;;;;;130.57;48.97;;;;;;;;;;4992369;28;20113;-65
2022/11/04 07:50:05;;;;;;;121.35;52.05;;;;;;;;;;4991126;28;20402;-66
2022/11/04 07:52:31;;;;;;;142.98;56.13;;;;;;;;;;4992000;28;20026;-64
2022/11/04 07:54:57;;;;;;;120.10;50.92;;;;;;;;;;4973863;28;20803;-64
2022/11/04 07:57:23;;;;;;;105.03;47.95;;;;;;;;;;4991795;28;20030;-64
2022/11/04 07:59:49;;;;;;;98.13;46.80;;;;;;;;;;4991158;28;20032;-64
2022/11/04 08:02:15;;;;;;;101.60;46.30;;;;;;;;;;4990669;28;20033;-64
2022/11/04 08:04:41;;;;;;;86.90;41.88;;;;;;;;;;4990678;28;20427;-64
2022/11/04 08:07:07;;;;;;;86.22;39.15;;;;;;;;;;4991710;28;20033;-64
2022/11/04 08:09:35;;;;;;;86.15;39.10;;;;;;;;;;4987671;28;20026;-66
2022/11/04 08:12:01;;;;;;;90.30;40.55;;;;;;;;;;4974713;28;20038;-64
2022/11/04 08:14:27;;;;;;;84.43;38.20;;;;;;;;;;4991449;28;20394;-64
2022/11/04 08:16:53;;;;;;;86.47;38.97;;;;;;;;;;4961779;28;20031;-64
2022/11/04 08:19:19;;;;;;;84.68;37.55;;;;;;;;;;4988618;28;20033;-65
2022/11/04 08:21:45;;;;;;;85.15;40.25;;;;;;;;;;4988595;28;20109;-64
2022/11/04 08:24:11;;;;;;;76.18;34.97;;;;;;;;;;4985380;28;20121;-65
2022/11/04 08:26:37;;;;;;;61.33;31.38;;;;;;;;;;4988904;28;20026;-65
2022/11/04 08:29:07;;;;;;;70.55;28.55;;;;;;;;;;4965745;28;20035;-64
2022/11/04 08:31:33;;;;;;;68.40;30.08;;;;;;;;;;4987632;28;20061;-65
2022/11/04 08:34:00;;;;;;;60.53;29.08;;;;;;;;;;4986348;28;20042;-65
2022/11/04 08:36:28;;;;;;;66.10;30.05;;;;;;;;;;4983743;28;20023;-68
2022/11/04 08:38:54;;;;;;;53.60;26.25;;;;;;;;;;4985508;28;20042;-68
2022/11/04 08:41:22;;;;;;;50.17;25.17;;;;;;;;;;4989972;28;20053;-68
2022/11/04 08:43:48;;;;;;;54.80;23.95;;;;;;;;;;4988713;28;20061;-67
2022/11/04 08:46:14;;;;;;;49.75;23.77;;;;;;;;;;4990687;28;20031;-68
2022/11/04 08:48:41;;;;;;;52.92;24.77;;;;;;;;;;4990972;28;20026;-68
2022/11/04 08:51:11;;;;;;;52.47;24.88;;;;;;;;;;4989791;28;20125;-67
2022/11/04 08:53:37;;;;;;;55.15;25.75;;;;;;;;;;4988305;28;20030;-68
2022/11/04 08:56:13;;;;;;;51.42;24.90;;;;;;;;;;4989388;28;20088;-68
2022/11/04 08:58:39;;;;;;;47.72;24.00;;;;;;;;;;4991018;28;20050;-68
2022/11/04 09:01:06;;;;;;;53.67;25.17;;;;;;;;;;4991575;28;20105;-70
2022/11/04 09:03:33;;;;;;;51.15;23.95;;;;;;;;;;4977421;28;20502;-66
2022/11/04 09:05:59;;;;;;;54.17;26.05;;;;;;;;;;5011468;28;20034;-66
2022/11/04 09:08:25;;;;;;;50.33;25.25;;;;;;;;;;4992894;28;20402;-68
2022/11/04 09:10:51;;;;;;;49.08;24.33;;;;;;;;;;5004709;28;20029;-68
2022/11/04 09:13:17;;;;;;;55.60;26.17;;;;;;;;;;4991461;28;20054;-68
2022/11/04 09:15:43;;;;;;;46.63;25.60;;;;;;;;;;4990899;28;20049;-68
2022/11/04 09:18:10;;;;;;;41.42;23.70;;;;;;;;;;4991335;28;20034;-67
2022/11/04 09:20:40;;;;;;;48.20;24.88;;;;;;;;;;4977807;28;20042;-68
2022/11/04 09:23:07;;;;;;;47.63;24.77;;;;;;;;;;4986989;28;20038;-66
2022/11/04 09:25:33;;;;;;;38.85;24.92;;;;;;;;;;4970259;28;20089;-66
2022/11/04 09:27:59;;;;;;;44.38;24.90;;;;;;;;;;5007857;28;20029;-66
2022/11/04 09:30:25;;;;;;;48.35;23.65;;;;;;;;;;4986608;28;20026;-68
2022/11/04 09:32:51;;;;;;;40.65;23.63;;;;;;;;;;4997044;28;20034;-68
2022/11/04 09:35:17;;;;;;;40.08;22.92;;;;;;;;;;4977559;28;20097;-65
2022/11/04 09:37:43;;;;;;;38.83;21.55;;;;;;;;;;5009293;28;20549;-65
2022/11/04 09:40:20;;;;;;;38.95;19.88;;;;;;;;;;5005292;28;20118;-68
2022/11/04 09:42:47;;;;;;;31.30;19.58;;;;;;;;;;4990109;28;20117;-66
2022/11/04 09:45:17;;;;;;;30.73;18.30;;;;;;;;;;4990060;28;20276;-68
2022/11/04 09:47:44;;;;;;;28.88;17.17;;;;;;;;;;4989920;28;20031;-68
2022/11/04 09:50:18;;;;;;;32.03;17.38;;;;;;;;;;4989313;28;20504;-65
2022/11/04 09:52:46;;;;;;;30.67;17.20;;;;;;;;;;4989798;28;20050;-68
2022/11/04 09:55:28;;;;;;;30.15;16.80;;;;;;;;;;4990169;28;20030;-66
2022/11/04 09:57:56;;;;;;;33.05;17.77;;;;;;;;;;4983278;28;20061;-66
2022/11/04 10:00:22;;;;;;;26.15;16.33;;;;;;;;;;4985779;28;20113;-66
2022/11/04 10:02:54;;;;;;;25.88;16.35;;;;;;;;;;4978581;28;20030;-66
2022/11/04 10:05:29;;;;;;;29.48;15.82;;;;;;;;;;4984916;28;20482;-66
2022/11/04 10:08:15;;;;;;;24.40;16.55;;;;;;;;;;4982729;28;20564;-66
2022/11/04 10:11:13;;;;;;;28.75;16.70;;;;;;;;;;4980748;28;20062;-66
2022/11/04 10:13:58;;;;;;;27.00;15.88;;;;;;;;;;4941241;28;20501;-68
2022/11/04 10:16:31;;;;;;;21.48;14.65;;;;;;;;;;4979778;28;20081;-68
2022/11/04 10:19:12;;;;;;;26.60;14.30;;;;;;;;;;4984019;28;20486;-67
2022/11/04 10:21:38;;;;;;;;;;;;;;;;;;4990691;28;20100;-67
2022/11/04 10:24:10;;;;;;;34.38;15.20;;;;;;;;;;4983104;28;19945;-67
2022/11/04 10:26:45;;;;;;;25.83;15.10;;;;;;;;;;4987275;28;20026;-67
2022/11/04 10:29:27;;;;;;;26.08;13.30;;;;;;;;;;4985495;28;20027;-67
2022/11/04 10:31:55;;;;;;;21.63;12.57;;;;;;;;;;4989347;28;20082;-67
2022/11/04 10:34:40;;;;;;;23.90;12.77;;;;;;;;;;4983948;28;20030;-67
2022/11/04 10:37:11;;;;;;;22.80;12.35;;;;;;;;;;4982346;28;20076;-68
2022/11/04 10:39:40;;;;;;;21.47;11.93;;;;;;;;;;4982873;28;20085;-68
2022/11/04 10:42:06;;;;;;;18.92;12.25;;;;;;;;;;4989531;28;20501;-66
2022/11/04 10:44:34;;;;;;;16.90;11.48;;;;;;;;;;4982492;28;20481;-65
2022/11/04 10:47:19;;;;;;;22.00;11.65;;;;;;;;;;4983687;28;20033;-67
2022/11/04 10:49:53;;;;;;;22.70;12.00;;;;;;;;;;4985592;28;20033;-68
2022/11/04 10:52:19;;;;;;;20.90;13.90;;;;;;;;;;4988256;28;20022;-67
2022/11/04 10:54:47;;;;;;;22.30;12.70;;;;;;;;;;4984365;28;20081;-66
2022/11/04 10:57:19;;;;;;;18.30;11.50;;;;;;;;;;4983683;28;20992;-67
2022/11/04 10:59:45;;;;;;;21.70;12.23;;;;;;;;;;4991467;28;20022;-67
2022/11/04 11:02:11;;;;;;;19.70;12.73;;;;;;;;;;4992966;28;20113;-67
2022/11/04 11:04:40;;;;;;;22.85;11.70;;;;;;;;;;4981315;28;20113;-67
2022/11/04 11:07:08;;;;;;;23.58;12.63;;;;;;;;;;4974785;28;20481;-68
2022/11/04 11:09:40;;;;;;;16.67;11.40;;;;;;;;;;4987496;28;20031;-67
2022/11/04 11:12:19;;;;;;;23.88;11.82;;;;;;;;;;4990049;28;20527;-67
2022/11/04 11:14:46;;;;;;;23.20;12.30;;;;;;;;;;4992665;28;20045;-66
2022/11/04 11:17:16;;;;;;;18.17;11.48;;;;;;;;;;4992122;28;20117;-67
2022/11/04 11:19:54;;;;;;;17.40;11.52;;;;;;;;;;4991673;28;20500;-68
2022/11/04 11:22:32;;;;;;;19.45;10.85;;;;;;;;;;4990072;28;20042;-66
2022/11/04 11:25:18;;;;;;;20.25;11.18;;;;;;;;;;4990396;28;20033;-66
2022/11/04 11:27:47;;;;;;;15.32;9.30;;;;;;;;;;4970126;28;20042;-66
2022/11/04 11:30:42;;;;;;;18.52;8.23;;;;;;;;;;4982529;28;20113;-65
2022/11/04 11:33:19;;;;;;;15.90;8.32;;;;;;;;;;4963699;28;20178;-65
2022/11/04 11:35:56;;;;;;;12.80;7.57;;;;;;;;;;4991348;28;20045;-67
2022/11/04 11:38:24;;;;;;;15.68;8.20;;;;;;;;;;4987386;28;20049;-67
2022/11/04 11:40:56;;;;;;;15.27;8.25;;;;;;;;;;4988245;28;20034;-65
2022/11/04 11:43:26;;;;;;;11.20;7.57;;;;;;;;;;4980452;28;20137;-67
2022/11/04 11:45:53;;;;;;;12.57;7.35;;;;;;;;;;4983454;28;20085;-66
2022/11/04 11:48:32;;;;;;;15.30;8.82;;;;;;;;;;4982450;28;20034;-67
2022/11/04 11:50:59;;;;;;;15.32;8.63;;;;;;;;;;4984291;28;20498;-67
2022/11/04 11:53:25;;;;;;;15.70;9.05;;;;;;;;;;4982711;28;20030;-67
2022/11/04 11:56:08;;;;;;;16.08;9.90;;;;;;;;;;4980593;28;20378;-68
2022/11/04 11:58:37;;;;;;;15.45;8.13;;;;;;;;;;4981663;28;20117;-69
2022/11/04 12:01:06;;;;;;;15.20;8.18;;;;;;;;;;4983260;28;20057;-67
2022/11/04 12:03:36;;;;;;;16.40;7.68;;;;;;;;;;4987369;28;20121;-66
2022/11/04 12:06:02;;;;;;;13.60;7.45;;;;;;;;;;4982361;28;20041;-66
2022/11/04 12:08:28;;;;;;;17.13;7.97;;;;;;;;;;4982699;28;20351;-66
2022/11/04 12:11:20;;;;;;;16.30;7.80;;;;;;;;;;4979687;28;20022;-65
2022/11/04 12:13:50;;;;;;;13.85;8.48;;;;;;;;;;4979604;28;20048;-66
2022/11/04 12:16:35;;;;;;;12.65;7.97;;;;;;;;;;4982463;28;20031;-66
2022/11/04 12:19:04;;;;;;;14.43;8.23;;;;;;;;;;4985157;28;20504;-66
2022/11/04 12:21:35;;;;;;;19.95;8.73;;;;;;;;;;4988727;28;20034;-66
2022/11/04 12:24:19;;;;;;;16.52;9.18;;;;;;;;;;4986928;28;20034;-66
2022/11/04 12:26:45;;;;;;;15.65;9.23;;;;;;;;;;4985492;28;20038;-66
2022/11/04 12:29:11;;;;;;;17.90;9.43;;;;;;;;;;4983105;28;20033;-66
2022/11/04 12:31:42;;;;;;;17.45;8.23;;;;;;;;;;4979785;28;20052;-69
2022/11/04 12:34:11;;;;;;;14.18;8.45;;;;;;;;;;4984126;28;20029;-66
2022/11/04 12:36:37;;;;;;;15.23;6.93;;;;;;;;;;4987166;28;20030;-66
2022/11/04 12:39:22;;;;;;;13.77;7.32;;;;;;;;;;4981092;28;20039;-65
2022/11/04 12:42:00;;;;;;;13.57;6.80;;;;;;;;;;4978187;28;20030;-66
2022/11/04 12:44:35;;;;;;;17.38;7.40;;;;;;;;;;4986540;28;20129;-66
2022/11/04 12:47:15;;;;;;;13.45;7.28;;;;;;;;;;4979831;28;20034;-66
2022/11/04 12:49:41;;;;;;;15.30;8.65;;;;;;;;;;4986432;28;20026;-66
2022/11/04 12:52:25;;;;;;;13.40;7.70;;;;;;;;;;4985576;28;20084;-66
2022/11/04 12:54:51;;;;;;;12.75;5.15;;;;;;;;;;4983398;28;20034;-66
2022/11/04 12:57:23;;;;;;;6.47;2.03;;;;;;;;;;4986247;28;20030;-66
2022/11/04 12:59:58;;;;;;;5.22;1.50;;;;;;;;;;4969661;28;20498;-65
2022/11/04 13:02:47;;;;;;;6.97;1.60;;;;;;;;;;4991174;28;20038;-66
2022/11/04 13:05:13;;;;;;;3.85;1.60;;;;;;;;;;4985315;28;20519;-66
2022/11/04 13:07:41;;;;;;;4.43;1.40;;;;;;;;;;4989897;28;20114;-66
2022/11/04 13:10:16;;;;;;;4.60;1.80;;;;;;;;;;4990711;28;20022;-66
2022/11/04 13:12:44;;;;;;;5.18;1.90;;;;;;;;;;4990384;28;20126;-66
2022/11/04 13:15:18;;;;;;;9.38;2.97;;;;;;;;;;4990903;28;20165;-65
2022/11/04 13:17:45;;;;;;;6.72;1.90;;;;;;;;;;4966926;28;20093;-66
2022/11/04 13:20:12;;;;;;;6.00;2.55;;;;;;;;;;4981869;28;20034;-66
2022/11/04 13:22:39;;;;;;;3.78;1.73;;;;;;;;;;4984197;28;20489;-65
2022/11/04 13:25:05;;;;;;;5.82;2.22;;;;;;;;;;4989548;28;20097;-66
2022/11/04 13:27:33;;;;;;;4.47;1.58;;;;;;;;;;4990482;28;20030;-66
2022/11/04 13:30:05;;;;;;;6.68;1.75;;;;;;;;;;4988676;28;20054;-66
2022/11/04 13:32:47;;;;;;;5.80;1.50;;;;;;;;;;4984409;28;20018;-66
2022/11/04 13:35:19;;;;;;;6.35;1.52;;;;;;;;;;4989538;28;20489;-66
2022/11/04 13:37:48;;;;;;;8.82;1.67;;;;;;;;;;4990570;28;20030;-65
2022/11/04 13:40:17;;;;;;;8.85;1.50;;;;;;;;;;4989849;28;20145;-65
2022/11/04 13:43:36;;;;;;;5.18;1.40;;;;;;;;;;4989530;28;20053;-66
2022/11/04 13:45:47;;;;;;;4.70;1.40;;;;;;;;;;4980279;28;20117;-65
2022/11/04 13:48:17;;;;;;;5.03;1.58;;;;;;;;;;4986647;28;20026;-65
2022/11/04 13:50:43;;;;;;;7.20;1.55;;;;;;;;;;4974387;28;20023;-66
2022/11/04 13:53:10;;;;;;;7.97;1.25;;;;;;;;;;4981789;28;20536;-64
2022/11/04 13:55:38;;;;;;;5.30;1.50;;;;;;;;;;4988901;28;20029;-65
2022/11/04 13:58:05;;;;;;;3.80;1.10;;;;;;;;;;4994670;28;20046;-75
2022/11/04 14:00:36;;;;;;;6.20;1.15;;;;;;;;;;5000347;28;20425;-76
2022/11/04 14:03:21;;;;;;;7.20;1.48;;;;;;;;;;5000447;28;20029;-77
2022/11/04 14:06:02;;;;;;;4.13;1.13;;;;;;;;;;4974877;28;20038;-76
2022/11/04 14:08:29;;;;;;;2.63;1.40;;;;;;;;;;4991874;28;20072;-75
2022/11/04 14:10:55;;;;;;;7.30;2.70;;;;;;;;;;4994711;28;20026;-75
2022/11/04 14:13:32;;;;;;;3.72;0.90;;;;;;;;;;4985872;28;20035;-76
2022/11/04 14:15:59;;;;;;;5.38;1.08;;;;;;;;;;4974823;28;20041;-76
2022/11/04 14:18:26;;;;;;;4.03;0.85;;;;;;;;;;4982977;28;20033;-76
2022/11/04 14:21:07;;;;;;;5.65;1.10;;;;;;;;;;4993298;28;20430;-76
2022/11/04 14:23:34;;;;;;;6.93;1.00;;;;;;;;;;4994360;28;20183;-76
2022/11/04 14:26:08;;;;;;;8.73;1.23;;;;;;;;;;4992115;28;20053;-75
2022/11/04 14:28:34;;;;;;;8.13;0.93;;;;;;;;;;4989795;28;20524;-76
2022/11/04 14:31:09;;;;;;;3.50;0.93;;;;;;;;;;4993811;28;20504;-76
2022/11/04 14:33:50;;;;;;;4.53;1.05;;;;;;;;;;4977735;28;20506;-75
2022/11/04 14:36:22;;;;;;;5.90;0.90;;;;;;;;;;5007293;28;20041;-74
2022/11/04 14:39:06;;;;;;;3.03;0.90;;;;;;;;;;4996557;28;20030;-76
2022/11/04 14:41:33;;;;;;;3.15;1.08;;;;;;;;;;4985876;28;20042;-76
2022/11/04 14:44:02;;;;;;;3.22;1.10;;;;;;;;;;4991948;28;20046;-76
2022/11/04 14:46:30;;;;;;;4.93;1.27;;;;;;;;;;4993122;28;20037;-76
2022/11/04 14:48:59;;;;;;;10.38;1.23;;;;;;;;;;4989914;28;20022;-76
2022/11/04 14:51:33;;;;;;;2.92;1.08;;;;;;;;;;4974404;28;20029;-76
2022/11/04 14:54:03;;;;;;;4.25;1.08;;;;;;;;;;4993813;28;20028;-75
2022/11/04 14:56:29;;;;;;;4.03;1.40;;;;;;;;;;4993406;28;20060;-75
2022/11/04 14:59:04;;;;;;;4.93;1.08;;;;;;;;;;4993071;28;20030;-75
2022/11/04 15:01:32;;;;;;;3.90;1.00;;;;;;;;;;4993338;28;20050;-76
2022/11/04 15:04:04;;;;;;;6.47;1.40;;;;;;;;;;4993172;28;20054;-76
2022/11/04 15:06:30;;;;;;;6.35;1.60;;;;;;;;;;5006169;28;20042;-75
2022/11/04 15:08:56;;;;;;;5.13;1.83;;;;;;;;;;4992947;28;20030;-75
2022/11/04 15:14:25;;;;;;;5.55;1.77;;;;;;;;;;4993029;28;20552;-76
2022/11/04 15:16:56;;;;;;;5.57;1.50;;;;;;;;;;4992895;28;20038;-76
2022/11/04 15:19:32;;;;;;;9.07;1.92;;;;;;;;;;4992234;28;20072;-74